PAFR METAR and TAF weather

Enter ICAO airport designator
Station Type Date Time Source
PAFR METAR 2021/09/07 23:58 UTC NOAA

PAFR 072358Z AUTO 00000KT 10SM CLR 15/07 A2988 RMK AO2 SLP125 T01480065 10153 20128 57013 PNO $


Station Type Date Time Source
PAFR Decoded METAR 2021/09/07 23:58 UTC NOAA

Ft. Richardson / Bryant U. S. Army Heliport, Ak, AK, United States (PAFR) 61-16N 149-39W 115M
Sep 07, 2021 - 07:58 PM EDT / 2021.09.07 2358 UTC
Wind: Calm:0
Visibility: 10 mile(s):0
Sky conditions: clear
Temperature: 58.6 F (14.8 C)
Dew Point: 43.7 F (6.5 C)
Relative Humidity: 57%
Pressure (altimeter): 29.88 in. Hg (1011 hPa)
Pressure tendency: 0.04 inches (1.3 hPa) lower than three hours ago
ob: PAFR 072358Z AUTO 00000KT 10SM CLR 15/07 A2988 RMK AO2 SLP125 T01480065 10153 20128 57013 PNO
cycle: 0

Station Type Date Time Source
PAFR TAF UTC NOAA

Error!

Example: see airport list